Air Navigation Services of Czech Republic  
Last data update:  03.12.2021 18:31:31 UTC česká verze
   METEO Page displayed:  03.12.2021 18:33:07 UTC  
vysvětlivky
METAR EDDB 031820Z 21014KT CAVOK 02/M02 Q1006 NOSIG=
METAR EDDC 031820Z 21013KT CAVOK 01/M04 Q1009 NOSIG=
METAR EDDE 031820Z 21014KT 9999 FEW024 00/M03 Q1006 TEMPO 22015G25KT=
METAR EDDF 031820Z 19010KT 9999 BKN026 BKN037 03/M01 Q1009 NOSIG=
METAR EDDM 031820Z 19004KT CAVOK M01/M04 Q1013 NOSIG=
METAR EDDN 031820Z 12005KT 100V160 9999 FEW030 M01/M03 Q1011 NOSIG=
METAR EDDP 031820Z 21014KT 9999 FEW045 01/M03 Q1007 TEMPO 22015G25KT=
METAR EDQM 031820Z 20011KT 170V230 9999 BKN011 M01/M03 Q1008=
METAR EPBY 031800Z 24013KT CAVOK 01/M03 Q1006=
METAR EPGD 031800Z 23011KT 170V250 9999 -SHSN SCT002 SCT007TCU BKN009 01/M00 Q1002 RESHSN=
METAR EPKK 031800Z 24010KT CAVOK M01/M07 Q1013=
METAR EPKT 031800Z 21010KT CAVOK M02/M07 Q1012=
METAR EPLL 031800Z 22009KT 190V250 CAVOK M00/M05 Q1009=
METAR EPPO 031800Z 24009KT CAVOK 01/M04 Q1008=
METAR EPRZ 031800Z 23005KT CAVOK M02/M06 Q1012=
METAR EPWA 031800Z 24011KT 220V280 9999 BKN030 02/M03 Q1008 NOSIG=
METAR EPWR 031800Z 22009KT CAVOK 00/M06 Q1011=
METAR LHBP 031830Z 34003KT CAVOK M02/M06 Q1015 NOSIG=
METAR LHSM 031745Z AUTO 30002KT 9000 NCD M00/M03 Q1016=
METAR LKBC NIL
METAR LKCV 031830Z 16006KT CAVOK M01/M04 Q1012 NOSIG RMK BLU BLU=
METAR LKKB 031830Z 20010KT CAVOK M01/M05 Q1011 NOSIG RMK BLU BLU=
METAR LKKU NIL
METAR LKKV 031830Z 19005KT 140V230 9999 OVC022 M02/M05 Q1009 RMK REG QNH 1006=
METAR LKLN 031830Z AUTO 21005KT 190V250 9999 FEW037 BKN240 M02/M05 Q1012=
METAR LKMT 031830Z 20012KT CAVOK 00/M07 Q1013 NOSIG RMK REG QNH 1006=
METAR LKNA 031830Z 19005KT CAVOK M02/M05 Q1013 NOSIG RMK BLU BLU=
METAR LKPD 031830Z 15003KT CAVOK M02/M05 Q1013 NOSIG RMK BLU BLU=
METAR LKPJ 031830Z AUTO VRB01KT CAVOK M03/M06 Q1014=
METAR LKPR 031830Z 20009KT CAVOK M01/M04 Q1011 NOSIG RMK REG QNH 1006=
METAR LKTB 031830Z 00000KT CAVOK M01/M06 Q1014 NOSIG RMK REG QNH 1006=
METAR LKVO NIL
METAR LOWI 031820Z VRB02KT CAVOK M03/M06 Q1015 NOSIG=
METAR LOWL 031820Z AUTO 23005KT 9999 NCD M01/M04 Q1015 NOSIG=
METAR LOWS 031820Z 15008KT CAVOK M03/M04 Q1015 NOSIG=
METAR LOWW 031820Z 26005KT CAVOK 01/M04 Q1016 NOSIG=
METAR LZIB 031830Z 23003KT 160V290 CAVOK 01/M03 Q1016 NOSIG=
METAR LZKZ 031830Z VRB02KT CAVOK M03/M06 Q1014=
METAR LZMC NIL
METAR LZPP 031800Z VRB02KT CAVOK M04/M07 Q1016=
METAR LZSL NIL
METAR LZTT 031830Z 24008KT CAVOK M05/M10 Q1012=
METAR LZZI 031800Z VRB01KT CAVOK M03/M07 Q1015=